Time;durP1;ratioP1;P1;durP2;ratioP2;P2;SDS_P1;SDS_P2;PMS_P1;PMS_P2;Temp;Humidity;BMP_temperature;BMP_pressure;BME280_temperature;BME280_humidity;BME280_pressure;Samples;Min_cycle;Max_cycle;Signal;HPM_P1;HPM_P2
2024/01/14 00:00:11;;;;;;;71.27;32.47;;;3.30;99.90;;;;;;5056431;28;20196;-76
2024/01/14 00:02:39;;;;;;;70.20;31.97;;;3.20;99.90;;;;;;5041089;28;20213;-76
2024/01/14 00:05:09;;;;;;;77.90;34.87;;;3.20;99.90;;;;;;5055436;28;20697;-76
2024/01/14 00:07:37;;;;;;;77.77;34.27;;;3.20;99.90;;;;;;5039650;28;20207;-77
2024/01/14 00:10:05;;;;;;;70.23;31.37;;;3.20;99.90;;;;;;5047724;28;20202;-76
2024/01/14 00:12:32;;;;;;;73.67;34.53;;;3.30;99.90;;;;;;5040017;28;20195;-76
2024/01/14 00:15:00;;;;;;;65.63;30.80;;;3.30;99.90;;;;;;5053516;28;20577;-76
2024/01/14 00:17:27;;;;;;;74.63;32.20;;;3.30;99.90;;;;;;5066131;28;20570;-76
2024/01/14 00:19:54;;;;;;;71.13;30.03;;;3.40;99.90;;;;;;5063225;28;20654;-76
2024/01/14 00:22:23;;;;;;;69.97;33.07;;;3.40;99.90;;;;;;5052194;28;20196;-76
2024/01/14 00:24:51;;;;;;;75.53;33.00;;;3.40;99.90;;;;;;5036865;28;20216;-76
2024/01/14 00:27:18;;;;;;;79.00;33.77;;;3.40;99.90;;;;;;5061553;28;20222;-76
2024/01/14 00:29:46;;;;;;;80.77;32.73;;;3.40;99.90;;;;;;5062261;28;20209;-76
2024/01/14 00:32:13;;;;;;;78.07;33.97;;;3.40;99.90;;;;;;5055358;28;20202;-76
2024/01/14 00:34:41;;;;;;;71.70;31.60;;;3.40;99.90;;;;;;5066840;28;20195;-79
2024/01/14 00:37:08;;;;;;;76.77;33.40;;;3.40;99.90;;;;;;5056584;28;20207;-79
2024/01/14 00:39:39;;;;;;;73.40;32.80;;;3.50;99.90;;;;;;5053332;28;20211;-79
2024/01/14 00:42:07;;;;;;;70.73;32.03;;;3.50;99.90;;;;;;5058753;28;20570;-76
2024/01/14 00:44:34;;;;;;;69.03;29.73;;;3.50;99.90;;;;;;5036718;28;20211;-77
2024/01/14 00:47:02;;;;;;;83.23;34.67;;;3.50;99.90;;;;;;5063616;28;20213;-76
2024/01/14 00:49:29;;;;;;;73.77;31.10;;;3.50;99.90;;;;;;5069167;28;20552;-76
2024/01/14 00:51:57;;;;;;;79.73;32.67;;;3.50;99.90;;;;;;5056626;28;20199;-77
2024/01/14 00:54:24;;;;;;;76.17;29.00;;;3.60;99.90;;;;;;5051086;28;20199;-79
2024/01/14 00:56:53;;;;;;;68.40;28.33;;;3.60;99.90;;;;;;5050399;28;20590;-79
2024/01/14 00:59:20;;;;;;;69.17;31.63;;;3.50;99.90;;;;;;5050937;28;20202;-79
2024/01/14 01:01:48;;;;;;;62.13;28.70;;;3.50;99.90;;;;;;5068328;28;20188;-79
2024/01/14 01:04:15;;;;;;;68.57;28.27;;;3.50;99.90;;;;;;5047628;28;20679;-79
2024/01/14 01:06:43;;;;;;;66.73;28.77;;;3.50;99.90;;;;;;5042195;28;20218;-76
2024/01/14 01:09:10;;;;;;;69.20;29.50;;;3.40;99.90;;;;;;5044264;28;20667;-76
2024/01/14 01:11:38;;;;;;;58.73;28.80;;;3.50;99.90;;;;;;5060127;28;20191;-76
2024/01/14 01:14:07;;;;;;;76.17;31.47;;;3.50;99.90;;;;;;5048566;28;20203;-76
2024/01/14 01:16:34;;;;;;;64.43;31.30;;;3.50;99.90;;;;;;5070253;28;20210;-76
2024/01/14 01:19:02;;;;;;;63.63;27.90;;;3.40;99.90;;;;;;5051794;28;20672;-76
2024/01/14 01:21:29;;;;;;;71.20;31.67;;;3.50;99.90;;;;;;5052973;28;20207;-77
2024/01/14 01:23:57;;;;;;;63.20;29.40;;;3.50;99.90;;;;;;5047815;28;20213;-76
2024/01/14 01:26:24;;;;;;;60.70;28.53;;;3.50;99.90;;;;;;5050180;28;20219;-76
2024/01/14 01:28:51;;;;;;;65.17;28.30;;;3.50;99.90;;;;;;5042153;28;20209;-76
2024/01/14 01:31:20;;;;;;;63.83;29.77;;;3.50;99.90;;;;;;5036466;28;20227;-76
2024/01/14 01:33:47;;;;;;;63.03;27.83;;;3.50;99.90;;;;;;5047864;28;20205;-76
2024/01/14 01:36:15;;;;;;;54.57;26.43;;;3.50;99.90;;;;;;5037526;28;20224;-76
2024/01/14 01:38:42;;;;;;;64.40;29.20;;;3.50;99.90;;;;;;5043735;28;20199;-76
2024/01/14 01:41:10;;;;;;;53.93;26.20;;;3.60;99.90;;;;;;5062490;28;20205;-76
2024/01/14 01:43:37;;;;;;;59.10;27.93;;;3.50;99.90;;;;;;5045191;28;20200;-76
2024/01/14 01:46:07;;;;;;;53.20;25.33;;;3.40;99.90;;;;;;5054504;28;20223;-76
2024/01/14 01:48:36;;;;;;;59.93;28.70;;;3.50;99.90;;;;;;5053600;28;20199;-76
2024/01/14 01:51:04;;;;;;;57.83;26.77;;;3.50;99.90;;;;;;5048294;28;20667;-76
2024/01/14 01:53:31;;;;;;;53.00;25.87;;;3.50;99.90;;;;;;5035235;28;20199;-76
2024/01/14 01:56:00;;;;;;;45.90;22.13;;;3.40;99.90;;;;;;5035545;28;20226;-76
2024/01/14 01:58:27;;;;;;;55.77;24.37;;;3.40;99.90;;;;;;5053497;28;20223;-76
2024/01/14 02:00:55;;;;;;;51.53;24.20;;;3.50;99.90;;;;;;5047840;28;20201;-76
2024/01/14 02:03:23;;;;;;;52.67;24.13;;;3.40;99.90;;;;;;5065767;28;20188;-76
2024/01/14 02:05:53;;;;;;;48.37;23.03;;;3.50;99.90;;;;;;5048595;28;20220;-76
2024/01/14 02:08:21;;;;;;;42.57;22.53;;;3.40;99.90;;;;;;5035721;28;20209;-76
2024/01/14 02:10:48;;;;;;;45.17;22.67;;;3.40;99.90;;;;;;5036968;28;20204;-77
2024/01/14 02:13:15;;;;;;;45.00;21.97;;;3.40;99.90;;;;;;5035381;28;20203;-78
2024/01/14 02:15:43;;;;;;;51.17;23.60;;;3.40;99.90;;;;;;5043594;28;20223;-77
2024/01/14 02:18:10;;;;;;;47.47;22.70;;;3.40;99.90;;;;;;5068929;28;20184;-77
2024/01/14 02:20:38;;;;;;;50.37;23.03;;;3.40;99.90;;;;;;5061332;28;20201;-77
2024/01/14 02:23:09;;;;;;;44.37;22.30;;;3.40;99.90;;;;;;5041897;28;20215;-77
2024/01/14 02:25:37;;;;;;;48.30;21.57;;;3.40;99.90;;;;;;5050360;28;20217;-77
2024/01/14 02:28:05;;;;;;;35.17;18.00;;;3.30;99.90;;;;;;5043297;28;20211;-77
2024/01/14 02:30:35;;;;;;;48.10;23.37;;;3.40;99.90;;;;;;5042584;28;20208;-77
2024/01/14 02:33:02;;;;;;;51.67;22.90;;;3.40;99.90;;;;;;5034763;28;20292;-77
2024/01/14 02:35:30;;;;;;;50.03;23.07;;;3.40;99.90;;;;;;5039358;28;20211;-78
2024/01/14 02:37:57;;;;;;;51.33;22.33;;;3.40;99.90;;;;;;5037384;28;20206;-77
2024/01/14 02:40:25;;;;;;;43.13;21.77;;;3.50;99.90;;;;;;5047116;28;20202;-77
2024/01/14 02:42:53;;;;;;;44.40;21.37;;;3.50;99.90;;;;;;5049548;28;20196;-77
2024/01/14 02:45:20;;;;;;;42.73;18.53;;;3.40;99.90;;;;;;5053107;22;20245;-78
2024/01/14 02:47:47;;;;;;;45.27;20.83;;;3.30;99.90;;;;;;5030838;28;20223;-78
2024/01/14 02:50:14;;;;;;;45.73;21.13;;;3.30;99.90;;;;;;5035366;28;20192;-78
2024/01/14 02:52:42;;;;;;;50.10;21.80;;;3.30;99.90;;;;;;5041639;28;20196;-78
2024/01/14 02:55:09;;;;;;;34.93;16.27;;;3.40;99.90;;;;;;5034615;28;20194;-79
2024/01/14 02:57:37;;;;;;;44.20;20.23;;;3.30;99.90;;;;;;5036203;28;20194;-77
2024/01/14 03:00:08;;;;;;;45.30;21.53;;;3.30;99.90;;;;;;5041430;28;20210;-78
2024/01/14 03:02:38;;;;;;;45.33;20.53;;;3.30;99.90;;;;;;5033374;28;20195;-78
2024/01/14 03:05:07;;;;;;;44.70;19.10;;;3.40;99.90;;;;;;5034528;28;20212;-78
2024/01/14 03:07:34;;;;;;;47.67;21.93;;;3.30;99.90;;;;;;5048633;28;20683;-78
2024/01/14 03:10:01;;;;;;;46.77;21.83;;;3.30;99.90;;;;;;5035262;28;20288;-78
2024/01/14 03:12:29;;;;;;;48.47;23.00;;;3.30;99.90;;;;;;5051257;28;20195;-78
2024/01/14 03:14:56;;;;;;;55.27;23.27;;;3.30;99.90;;;;;;5034769;28;20211;-78
2024/01/14 03:17:25;;;;;;;47.83;21.13;;;3.30;99.90;;;;;;5032517;28;20223;-78
2024/01/14 03:19:52;;;;;;;53.40;23.03;;;3.20;99.90;;;;;;5034288;28;20207;-78
2024/01/14 03:22:20;;;;;;;40.00;19.13;;;3.30;99.90;;;;;;5034423;28;20197;-78
2024/01/14 03:24:47;;;;;;;55.63;22.87;;;3.30;99.90;;;;;;5034963;28;20197;-79
2024/01/14 03:27:15;;;;;;;50.93;24.10;;;3.40;99.90;;;;;;5055019;28;20212;-78
2024/01/14 03:29:43;;;;;;;53.10;24.57;;;3.30;99.90;;;;;;5056381;28;20559;-78
2024/01/14 03:32:10;;;;;;;54.43;25.40;;;3.30;99.90;;;;;;5038612;28;20209;-78
2024/01/14 03:34:39;;;;;;;50.87;24.53;;;3.40;99.90;;;;;;5038709;28;20191;-78
2024/01/14 03:37:07;;;;;;;53.63;23.63;;;3.40;99.90;;;;;;5038169;28;20212;-78
2024/01/14 03:39:34;;;;;;;57.70;25.13;;;3.40;99.90;;;;;;5055721;28;20195;-78
2024/01/14 03:42:02;;;;;;;56.90;25.77;;;3.40;99.90;;;;;;5038224;28;20198;-78
2024/01/14 03:44:29;;;;;;;58.20;24.40;;;3.40;99.90;;;;;;5042601;28;20202;-78
2024/01/14 03:46:57;;;;;;;51.50;24.47;;;3.40;99.90;;;;;;5055420;28;20228;-78
2024/01/14 03:49:24;;;;;;;53.67;22.00;;;3.50;99.90;;;;;;5038030;28;20645;-78
2024/01/14 03:51:53;;;;;;;56.50;23.87;;;3.40;99.90;;;;;;5054193;28;20206;-78
2024/01/14 03:54:20;;;;;;;53.80;25.53;;;3.60;99.90;;;;;;5038380;28;20209;-78
2024/01/14 03:56:48;;;;;;;51.83;22.80;;;3.40;99.90;;;;;;5046433;28;20222;-78
2024/01/14 03:59:15;;;;;;;55.60;24.77;;;3.40;99.90;;;;;;5055499;28;20195;-78
2024/01/14 04:01:43;;;;;;;54.73;23.80;;;3.40;99.90;;;;;;5055287;28;20263;-77
2024/01/14 04:04:11;;;;;;;48.23;20.80;;;3.40;99.90;;;;;;5047172;28;20196;-78
2024/01/14 04:06:38;;;;;;;54.33;23.83;;;3.30;99.90;;;;;;5055038;28;20221;-78
2024/01/14 04:09:07;;;;;;;48.97;23.57;;;3.50;99.90;;;;;;5054586;28;20223;-78
2024/01/14 04:11:34;;;;;;;48.90;22.30;;;3.40;99.90;;;;;;5050755;28;20205;-78
2024/01/14 04:14:02;;;;;;;49.53;22.60;;;3.30;99.90;;;;;;5056212;28;20271;-78
2024/01/14 04:16:37;;;;;;;36.93;17.97;;;3.30;99.90;;;;;;5036935;28;20235;-78
2024/01/14 04:19:05;;;;;;;38.73;17.67;;;3.30;99.90;;;;;;5037590;28;20203;-78
2024/01/14 04:21:32;;;;;;;41.10;19.13;;;3.30;99.90;;;;;;5037778;28;20528;-78
2024/01/14 04:24:02;;;;;;;49.70;21.60;;;3.30;99.90;;;;;;5037215;28;20207;-78
2024/01/14 04:26:31;;;;;;;51.03;21.30;;;3.20;99.90;;;;;;5037757;28;20680;-78
2024/01/14 04:28:59;;;;;;;40.83;20.87;;;3.20;99.90;;;;;;5037729;28;20221;-79
2024/01/14 04:31:26;;;;;;;42.27;21.80;;;3.30;99.90;;;;;;5036929;28;20676;-78
2024/01/14 04:33:53;;;;;;;47.20;22.07;;;3.20;99.90;;;;;;5037678;28;20199;-78
2024/01/14 04:36:21;;;;;;;48.03;22.13;;;3.20;99.90;;;;;;5038198;28;20210;-78
2024/01/14 04:38:48;;;;;;;43.23;21.93;;;3.20;99.90;;;;;;5036022;28;20675;-77
2024/01/14 04:41:16;;;;;;;45.60;21.97;;;3.20;99.90;;;;;;5038179;28;20204;-78
2024/01/14 04:43:44;;;;;;;49.23;22.73;;;3.20;99.90;;;;;;5043189;28;20195;-78
2024/01/14 04:46:12;;;;;;;52.87;24.17;;;3.20;99.90;;;;;;5042929;28;20710;-77
2024/01/14 04:48:39;;;;;;;56.77;26.70;;;3.20;99.90;;;;;;5038510;28;20664;-78
2024/01/14 04:51:07;;;;;;;52.23;23.83;;;3.20;99.90;;;;;;5036582;28;20661;-78
2024/01/14 04:53:34;;;;;;;54.27;23.23;;;3.30;99.90;;;;;;5054115;28;20203;-78
2024/01/14 04:56:06;;;;;;;52.70;25.33;;;3.20;99.90;;;;;;5053987;28;20692;-78
2024/01/14 04:58:33;;;;;;;55.13;25.67;;;3.20;99.90;;;;;;5055212;28;20176;-78
2024/01/14 05:01:03;;;;;;;59.83;27.83;;;3.20;99.90;;;;;;5037330;28;20206;-78
2024/01/14 05:03:30;;;;;;;51.23;25.27;;;3.20;99.90;;;;;;5054185;28;20196;-78
2024/01/14 05:05:58;;;;;;;56.90;27.60;;;3.20;99.90;;;;;;5037891;28;20223;-78
2024/01/14 05:08:25;;;;;;;64.53;30.10;;;3.20;99.90;;;;;;5036851;28;20696;-78
2024/01/14 05:10:52;;;;;;;68.87;30.47;;;3.30;99.90;;;;;;5047151;28;20200;-78
2024/01/14 05:13:20;;;;;;;62.60;27.30;;;3.30;99.90;;;;;;5037173;28;20278;-78
2024/01/14 05:15:47;;;;;;;60.50;27.83;;;3.30;99.90;;;;;;5032369;28;20231;-78
2024/01/14 05:18:16;;;;;;;67.50;28.47;;;3.30;99.90;;;;;;5035544;28;20192;-78
2024/01/14 05:20:44;;;;;;;61.90;29.57;;;3.30;99.90;;;;;;5055380;28;20202;-77
2024/01/14 05:23:11;;;;;;;58.43;26.30;;;3.30;99.90;;;;;;5037198;28;20207;-78
2024/01/14 05:25:39;;;;;;;67.83;31.80;;;3.30;99.90;;;;;;5050488;28;20227;-78
2024/01/14 05:28:06;;;;;;;66.43;29.40;;;3.40;99.90;;;;;;5052997;28;20233;-78
2024/01/14 05:30:34;;;;;;;53.67;26.93;;;3.30;99.90;;;;;;5046446;28;20199;-78
2024/01/14 05:33:26;;;;;;;56.70;27.13;;;3.30;99.90;;;;;;5044057;28;20198;-78
2024/01/14 05:35:54;;;;;;;66.27;28.00;;;3.30;99.90;;;;;;5048955;28;20215;-78
2024/01/14 05:38:21;;;;;;;62.23;27.57;;;3.30;99.90;;;;;;5021714;28;20207;-78
2024/01/14 05:40:49;;;;;;;46.80;19.90;;;3.40;99.90;;;;;;5036881;28;20197;-78
2024/01/14 05:43:16;;;;;;;61.73;27.00;;;3.30;99.90;;;;;;5052962;28;20210;-77
2024/01/14 05:45:46;;;;;;;55.70;25.27;;;3.40;99.90;;;;;;5036068;28;20215;-78
2024/01/14 05:48:13;;;;;;;60.23;27.60;;;3.30;99.90;;;;;;5051370;28;20218;-78
2024/01/14 05:50:42;;;;;;;58.97;27.33;;;3.30;99.90;;;;;;5035750;28;20196;-78
2024/01/14 05:53:10;;;;;;;63.77;28.07;;;3.30;99.90;;;;;;5054485;28;20196;-78
2024/01/14 05:55:37;;;;;;;56.93;27.63;;;3.30;99.90;;;;;;5036097;28;20767;-77
2024/01/14 05:58:05;;;;;;;68.23;30.23;;;3.30;99.90;;;;;;5053799;28;20203;-78
2024/01/14 06:00:34;;;;;;;62.37;29.50;;;3.30;99.90;;;;;;5050100;28;20194;-78
2024/01/14 06:03:01;;;;;;;56.63;27.23;;;3.30;99.90;;;;;;5041523;28;20203;-78
2024/01/14 06:05:29;;;;;;;57.70;26.87;;;3.20;99.90;;;;;;5038775;28;20226;-78
2024/01/14 06:07:57;;;;;;;68.87;28.17;;;3.20;99.90;;;;;;5035807;28;20487;-78
2024/01/14 06:10:26;;;;;;;57.33;27.17;;;3.30;99.90;;;;;;5052732;28;20534;-78
2024/01/14 06:12:53;;;;;;;65.57;30.10;;;3.20;99.90;;;;;;5048282;28;20283;-78
2024/01/14 06:15:20;;;;;;;66.27;29.23;;;3.20;99.90;;;;;;5053609;28;20541;-77
2024/01/14 06:17:48;;;;;;;64.87;27.87;;;3.10;99.90;;;;;;5022044;28;20198;-78
2024/01/14 06:20:15;;;;;;;62.03;26.80;;;3.20;99.90;;;;;;5053649;28;20548;-78
2024/01/14 06:22:43;;;;;;;61.77;27.20;;;3.20;99.90;;;;;;5054031;28;20529;-78
2024/01/14 06:25:12;;;;;;;55.10;25.47;;;3.20;99.90;;;;;;5052370;28;20206;-78
2024/01/14 06:27:39;;;;;;;60.70;27.03;;;3.10;99.90;;;;;;5045770;28;20190;-78
2024/01/14 06:30:09;;;;;;;52.80;24.70;;;3.10;99.90;;;;;;5036332;28;20690;-78
2024/01/14 06:32:36;;;;;;;62.30;27.30;;;3.10;99.90;;;;;;5035255;28;20199;-78
2024/01/14 06:35:04;;;;;;;60.43;25.77;;;3.10;99.90;;;;;;5047115;28;20202;-78
2024/01/14 06:37:40;;;;;;;57.07;27.23;;;3.20;99.90;;;;;;5052404;28;20193;-78
2024/01/14 06:40:08;;;;;;;68.07;29.27;;;3.20;99.90;;;;;;5051989;28;20225;-78
2024/01/14 06:42:37;;;;;;;57.60;26.40;;;3.20;99.90;;;;;;5035512;28;20187;-78
2024/01/14 06:45:06;;;;;;;61.57;28.43;;;3.20;99.90;;;;;;5045388;28;20209;-78
2024/01/14 06:48:02;;;;;;;57.57;24.37;;;3.20;99.90;;;;;;5035195;28;20206;-78
2024/01/14 06:50:30;;;;;;;61.03;28.17;;;3.20;99.90;;;;;;5039203;28;20207;-77
2024/01/14 06:52:57;;;;;;;62.93;28.23;;;3.20;99.90;;;;;;5050371;28;20203;-77
2024/01/14 06:55:25;;;;;;;71.10;32.73;;;3.20;99.90;;;;;;5050429;28;20203;-77
2024/01/14 06:57:54;;;;;;;68.60;31.17;;;3.20;99.90;;;;;;5034247;28;20199;-77
2024/01/14 07:00:21;;;;;;;53.23;26.17;;;3.20;99.90;;;;;;5028768;28;20192;-78
2024/01/14 07:02:53;;;;;;;60.27;29.90;;;3.10;99.90;;;;;;5033664;28;20652;-78
2024/01/14 07:05:21;;;;;;;59.33;28.43;;;3.20;99.90;;;;;;5049263;28;20195;-78
2024/01/14 07:07:49;;;;;;;62.40;29.77;;;3.20;99.90;;;;;;5037178;28;20210;-78
2024/01/14 07:10:30;;;;;;;60.40;29.33;;;3.10;99.90;;;;;;5028296;28;20220;-78
2024/01/14 07:12:59;;;;;;;60.00;28.97;;;3.20;99.90;;;;;;5028866;28;20218;-79
2024/01/14 07:15:26;;;;;;;70.40;30.90;;;3.20;99.90;;;;;;5030374;28;20228;-78
2024/01/14 07:17:54;;;;;;;60.60;28.17;;;3.10;99.90;;;;;;5033738;28;20207;-79
2024/01/14 07:20:30;;;;;;;65.60;29.27;;;3.20;99.90;;;;;;5053809;28;20188;-78
2024/01/14 07:22:57;;;;;;;58.00;28.47;;;3.20;99.90;;;;;;5028123;28;20206;-77
2024/01/14 07:25:25;;;;;;;67.07;32.90;;;3.10;99.90;;;;;;5044104;28;20194;-81
2024/01/14 07:27:56;;;;;;;65.10;30.73;;;3.10;99.90;;;;;;5032255;28;20216;-81
2024/01/14 07:30:33;;;;;;;76.37;31.53;;;3.10;99.90;;;;;;5036384;28;20244;-81
2024/01/14 07:33:06;;;;;;;60.63;30.87;;;3.10;99.90;;;;;;5035673;28;20204;-81
2024/01/14 07:35:38;;;;;;;67.20;31.03;;;3.10;99.90;;;;;;5050437;28;20230;-81
2024/01/14 07:38:08;;;;;;;74.63;33.07;;;3.00;99.90;;;;;;5045516;28;20204;-82
2024/01/14 07:40:36;;;;;;;68.70;31.10;;;3.00;99.90;;;;;;5032938;28;20207;-81
2024/01/14 07:43:05;;;;;;;63.80;29.10;;;3.10;99.90;;;;;;5048000;28;20200;-81
2024/01/14 07:45:34;;;;;;;68.97;32.40;;;3.00;99.90;;;;;;5030206;28;20242;-81
2024/01/14 07:48:02;;;;;;;69.30;30.93;;;3.00;99.90;;;;;;5020179;28;20588;-81
2024/01/14 07:50:29;;;;;;;61.93;30.70;;;3.00;99.90;;;;;;5037692;28;20588;-80
2024/01/14 07:52:57;;;;;;;66.13;30.50;;;3.00;99.90;;;;;;5047756;28;20218;-81
2024/01/14 07:55:24;;;;;;;68.17;32.40;;;3.00;99.90;;;;;;5033174;28;20195;-80
2024/01/14 07:57:51;;;;;;;66.20;30.90;;;3.00;99.90;;;;;;5035188;28;20210;-81
2024/01/14 08:00:28;;;;;;;62.30;28.53;;;2.90;99.90;;;;;;5036580;28;20192;-81
2024/01/14 08:02:57;;;;;;;64.27;27.90;;;2.80;99.90;;;;;;5044662;28;20202;-79
2024/01/14 08:05:24;;;;;;;61.07;29.17;;;2.80;99.90;;;;;;5034203;28;20294;-79
2024/01/14 08:07:52;;;;;;;65.67;29.37;;;2.90;99.90;;;;;;5041549;28;20211;-79
2024/01/14 08:10:19;;;;;;;59.87;27.87;;;3.00;99.90;;;;;;5033627;28;20227;-77
2024/01/14 08:13:16;;;;;;;57.80;28.87;;;3.00;99.90;;;;;;5049166;28;20218;-79
2024/01/14 08:15:44;;;;;;;59.87;28.70;;;2.90;99.90;;;;;;5030456;28;20217;-82
2024/01/14 08:18:12;;;;;;;64.43;31.13;;;2.90;99.90;;;;;;5039698;28;20211;-79
2024/01/14 08:20:41;;;;;;;63.47;29.87;;;2.90;99.90;;;;;;5041278;28;20192;-79
2024/01/14 08:23:08;;;;;;;68.53;31.93;;;2.90;99.90;;;;;;5055511;28;20202;-79
2024/01/14 08:25:35;;;;;;;68.10;32.93;;;2.90;99.90;;;;;;5046968;28;20224;-79
2024/01/14 08:28:03;;;;;;;63.10;29.07;;;2.90;99.90;;;;;;5033962;28;20204;-79
2024/01/14 08:30:49;;;;;;;58.50;28.47;;;2.90;99.90;;;;;;5041741;28;20210;-79
2024/01/14 08:33:18;;;;;;;50.80;27.23;;;2.90;99.90;;;;;;5037164;28;20195;-79
2024/01/14 08:35:46;;;;;;;68.63;31.33;;;2.90;99.90;;;;;;5044726;28;20695;-79
2024/01/14 08:38:13;;;;;;;64.23;31.07;;;3.00;99.90;;;;;;5027045;28;20203;-79
2024/01/14 08:40:40;;;;;;;67.80;30.37;;;2.90;99.90;;;;;;5035780;28;20207;-80
2024/01/14 08:43:09;;;;;;;70.80;32.80;;;3.00;99.90;;;;;;5037592;28;20204;-79
2024/01/14 08:45:36;;;;;;;61.43;29.57;;;3.00;99.90;;;;;;5042679;28;20220;-80
2024/01/14 08:48:07;;;;;;;64.03;29.90;;;3.00;99.90;;;;;;4973887;28;20232;-79
2024/01/14 08:50:36;;;;;;;68.70;31.63;;;3.10;99.90;;;;;;5035811;28;20216;-80
2024/01/14 08:53:03;;;;;;;68.73;31.53;;;3.00;99.90;;;;;;5036830;28;20657;-80
2024/01/14 08:55:37;;;;;;;64.40;31.73;;;3.00;99.90;;;;;;5049069;28;20231;-80
2024/01/14 08:58:05;;;;;;;61.23;29.93;;;3.00;99.90;;;;;;5043379;28;20194;-80
2024/01/14 09:00:32;;;;;;;57.23;28.57;;;3.00;99.90;;;;;;5038397;28;20235;-80
2024/01/14 09:03:00;;;;;;;56.80;28.63;;;3.00;99.90;;;;;;5054801;28;20216;-80
2024/01/14 09:05:29;;;;;;;57.27;29.53;;;3.10;99.90;;;;;;5035239;28;20222;-80
2024/01/14 09:07:58;;;;;;;65.57;30.63;;;3.00;99.90;;;;;;5056975;28;20196;-80
2024/01/14 09:10:25;;;;;;;63.10;29.13;;;3.00;99.90;;;;;;5030666;28;20220;-80
2024/01/14 09:12:53;;;;;;;60.47;30.03;;;3.00;99.90;;;;;;5039277;28;20202;-80
2024/01/14 09:15:20;;;;;;;70.63;29.97;;;3.00;99.90;;;;;;5050030;28;20205;-80
2024/01/14 09:17:47;;;;;;;64.20;31.70;;;3.00;99.90;;;;;;5036485;28;20204;-80
2024/01/14 09:20:15;;;;;;;58.50;28.37;;;3.00;99.90;;;;;;5050453;28;20191;-80
2024/01/14 09:22:43;;;;;;;60.30;28.93;;;3.00;99.90;;;;;;5028315;28;20222;-80
2024/01/14 09:25:13;;;;;;;60.20;27.57;;;3.00;99.90;;;;;;5049466;28;20215;-80
2024/01/14 09:27:45;;;;;;;53.70;26.07;;;2.90;99.90;;;;;;5036025;28;20205;-80
2024/01/14 09:30:13;;;;;;;54.93;25.10;;;2.90;99.90;;;;;;5033260;28;20219;-80
2024/01/14 09:32:42;;;;;;;65.77;30.70;;;2.90;99.90;;;;;;5034744;28;20571;-80
2024/01/14 09:35:09;;;;;;;56.93;27.90;;;2.80;99.90;;;;;;5030725;28;20197;-80
2024/01/14 09:37:37;;;;;;;62.63;29.77;;;2.80;99.90;;;;;;5036678;28;20548;-80
2024/01/14 09:40:06;;;;;;;61.03;29.67;;;2.80;99.90;;;;;;5053971;28;20191;-80
2024/01/14 09:42:37;;;;;;;64.47;26.63;;;2.90;99.90;;;;;;5036970;28;20206;-79
2024/01/14 09:45:06;;;;;;;60.10;29.00;;;2.80;99.90;;;;;;5029777;28;20205;-80
2024/01/14 09:47:34;;;;;;;54.20;25.83;;;2.90;99.90;;;;;;5028892;28;20209;-80
2024/01/14 09:50:18;;;;;;;53.53;25.47;;;2.90;99.90;;;;;;5055016;28;20217;-80
2024/01/14 09:52:46;;;;;;;53.40;26.23;;;2.80;99.90;;;;;;5044910;28;20194;-80
2024/01/14 09:55:16;;;;;;;51.20;26.77;;;2.70;99.90;;;;;;5033713;28;20564;-80
2024/01/14 09:57:52;;;;;;;57.53;27.63;;;2.80;99.90;;;;;;5031869;28;20199;-80
2024/01/14 10:00:41;;;;;;;47.70;24.77;;;2.80;99.90;;;;;;5048607;28;20695;-80
2024/01/14 10:03:11;;;;;;;52.70;27.10;;;2.70;99.90;;;;;;5034902;28;20287;-80
2024/01/14 10:05:40;;;;;;;54.67;24.77;;;2.70;99.90;;;;;;5084762;22;20214;-79
2024/01/14 10:08:07;;;;;;;49.03;23.43;;;2.60;99.90;;;;;;5035999;28;20204;-79
2024/01/14 10:10:36;;;;;;;55.10;25.27;;;2.60;99.90;;;;;;5043376;28;20231;-79
2024/01/14 10:13:05;;;;;;;46.17;24.97;;;2.70;99.90;;;;;;5041894;28;20209;-80
2024/01/14 10:15:33;;;;;;;49.47;24.33;;;2.70;99.90;;;;;;5074833;28;20267;-79
2024/01/14 10:18:00;;;;;;;48.83;24.93;;;2.70;99.90;;;;;;5051755;28;20211;-79
2024/01/14 10:20:30;;;;;;;46.03;23.93;;;2.60;99.90;;;;;;5035588;28;20196;-79
2024/01/14 10:22:57;;;;;;;49.10;25.03;;;2.60;99.90;;;;;;5049797;28;20204;-79
2024/01/14 10:25:27;;;;;;;54.30;24.93;;;2.60;99.90;;;;;;5069424;28;20223;-79
2024/01/14 10:27:55;;;;;;;51.17;24.77;;;2.60;99.90;;;;;;5043466;28;20197;-79
2024/01/14 10:30:24;;;;;;;50.87;23.97;;;2.60;99.90;;;;;;5041167;28;20225;-79
2024/01/14 10:32:53;;;;;;;42.43;22.70;;;2.60;99.90;;;;;;5073950;28;20194;-80
2024/01/14 10:35:21;;;;;;;47.97;24.37;;;2.50;99.90;;;;;;5057456;28;20214;-79
2024/01/14 10:37:48;;;;;;;48.60;24.13;;;2.50;99.90;;;;;;5056408;28;20201;-79
2024/01/14 10:40:18;;;;;;;38.97;21.20;;;2.50;99.90;;;;;;5046304;28;20567;-79
2024/01/14 10:42:46;;;;;;;44.80;23.10;;;2.40;99.90;;;;;;5051864;28;20200;-79
2024/01/14 10:45:13;;;;;;;42.37;20.53;;;2.50;99.90;;;;;;5047648;28;20216;-79
2024/01/14 10:47:47;;;;;;;48.50;24.13;;;2.40;99.90;;;;;;5036234;28;20225;-79
2024/01/14 10:50:18;;;;;;;46.63;24.23;;;2.40;99.90;;;;;;5041437;28;20203;-79
2024/01/14 10:53:01;;;;;;;49.23;23.27;;;2.40;99.90;;;;;;5068428;28;20275;-79
2024/01/14 10:55:40;;;;;;;43.10;19.87;;;2.40;99.90;;;;;;5042785;28;20592;-79
2024/01/14 10:58:08;;;;;;;43.17;21.93;;;2.30;99.90;;;;;;5063036;28;20205;-80
2024/01/14 11:00:37;;;;;;;28.03;16.17;;;2.40;99.90;;;;;;5066438;28;20542;-79
2024/01/14 11:03:09;;;;;;;38.30;19.73;;;2.30;99.90;;;;;;5048312;28;20198;-79
2024/01/14 11:05:37;;;;;;;38.10;20.23;;;2.30;99.90;;;;;;5053690;28;20256;-79
2024/01/14 11:08:05;;;;;;;37.93;19.00;;;2.30;99.90;;;;;;5048981;28;20566;-79
2024/01/14 11:10:33;;;;;;;34.97;20.37;;;2.30;99.90;;;;;;5045857;28;20201;-79
2024/01/14 11:13:08;;;;;;;36.03;20.67;;;2.30;99.90;;;;;;5045997;28;20567;-79
2024/01/14 11:15:45;;;;;;;34.97;19.67;;;2.30;99.90;;;;;;5070175;28;20225;-79
2024/01/14 11:18:20;;;;;;;36.37;18.73;;;2.30;99.90;;;;;;5042919;28;20189;-79
2024/01/14 11:20:52;;;;;;;33.67;18.57;;;2.30;99.90;;;;;;5063176;28;20192;-79
2024/01/14 11:23:21;;;;;;;36.60;19.10;;;2.30;99.90;;;;;;5049057;28;20187;-79
2024/01/14 11:25:50;;;;;;;37.23;20.13;;;2.30;99.90;;;;;;5048777;28;20222;-79
2024/01/14 11:28:17;;;;;;;34.37;17.77;;;2.30;99.90;;;;;;5060250;28;20665;-79
2024/01/14 11:30:53;;;;;;;37.90;19.23;;;2.30;99.90;;;;;;5062273;28;20195;-79
2024/01/14 11:33:40;;;;;;;29.73;16.20;;;2.40;99.90;;;;;;5066428;28;20194;-79
2024/01/14 11:36:08;;;;;;;34.07;19.77;;;2.30;99.90;;;;;;5043087;28;20232;-79
2024/01/14 11:38:36;;;;;;;35.73;19.43;;;2.30;99.90;;;;;;5044985;28;20199;-79
2024/01/14 11:41:25;;;;;;;39.90;19.13;;;2.30;99.90;;;;;;5032835;28;20191;-79
2024/01/14 11:43:58;;;;;;;35.67;17.13;;;2.20;99.90;;;;;;5068805;28;20199;-79
2024/01/14 11:46:42;;;;;;;33.23;18.20;;;2.30;99.90;;;;;;5028059;28;20218;-79
2024/01/14 11:49:20;;;;;;;36.40;18.40;;;2.30;99.90;;;;;;5050532;28;20209;-79
2024/01/14 11:51:53;;;;;;;30.63;17.10;;;2.30;99.90;;;;;;5037785;28;20216;-79
2024/01/14 11:54:23;;;;;;;25.43;14.80;;;2.30;99.90;;;;;;5046706;28;20207;-79
2024/01/14 11:56:51;;;;;;;23.57;13.23;;;2.20;99.90;;;;;;5066773;28;20202;-79
2024/01/14 11:59:18;;;;;;;26.83;15.30;;;2.20;99.90;;;;;;5047149;28;20199;-79
2024/01/14 12:01:46;;;;;;;25.47;15.07;;;2.20;99.90;;;;;;5061824;28;20196;-79
2024/01/14 12:04:14;;;;;;;25.97;14.77;;;2.20;99.90;;;;;;5039309;28;20200;-79
2024/01/14 12:06:44;;;;;;;21.20;13.10;;;2.20;99.90;;;;;;5056538;28;20198;-79
2024/01/14 12:09:14;;;;;;;22.87;13.57;;;2.30;99.90;;;;;;5054901;28;20205;-79
2024/01/14 12:11:42;;;;;;;30.40;16.37;;;2.20;99.90;;;;;;5045898;28;20230;-79
2024/01/14 12:14:11;;;;;;;24.50;13.93;;;2.10;99.90;;;;;;5073452;28;20204;-79
2024/01/14 12:16:40;;;;;;;30.57;15.70;;;2.10;99.90;;;;;;5065895;28;20186;-79
2024/01/14 12:19:13;;;;;;;25.67;15.77;;;2.20;99.90;;;;;;5054775;28;20210;-79
2024/01/14 12:21:42;;;;;;;32.37;16.77;;;2.20;99.90;;;;;;5043896;28;20194;-79
2024/01/14 12:24:12;;;;;;;30.10;16.43;;;2.20;99.90;;;;;;5056855;28;20205;-79
2024/01/14 12:26:40;;;;;;;32.60;16.63;;;2.10;99.90;;;;;;5070777;28;20198;-79
2024/01/14 12:29:08;;;;;;;31.63;16.93;;;2.10;99.90;;;;;;5049890;28;20209;-79
2024/01/14 12:31:35;;;;;;;34.10;18.00;;;2.10;99.90;;;;;;5049743;28;20218;-79
2024/01/14 12:34:05;;;;;;;31.33;17.47;;;2.10;99.90;;;;;;5064725;28;20694;-79
2024/01/14 12:36:35;;;;;;;40.93;19.90;;;2.20;99.90;;;;;;5059238;28;20206;-79
2024/01/14 12:39:04;;;;;;;30.57;16.80;;;2.20;99.90;;;;;;5044769;28;20201;-79
2024/01/14 12:41:31;;;;;;;35.17;17.77;;;2.20;99.90;;;;;;5059692;28;20197;-79
2024/01/14 12:43:59;;;;;;;36.73;18.83;;;2.20;99.90;;;;;;5058617;28;20205;-79